sensor_id;sensor_type;location;lat;lon;timestamp;temperature;humidity
12557;DHT22;6344;49.932;8.308;2022-09-13T00:00:47;13.40;99.90
12557;DHT22;6344;49.932;8.308;2022-09-13T00:03:15;13.30;99.90
12557;DHT22;6344;49.932;8.308;2022-09-13T00:05:42;13.30;99.90
12557;DHT22;6344;49.932;8.308;2022-09-13T00:08:10;13.30;99.90
12557;DHT22;6344;49.932;8.308;2022-09-13T00:10:38;13.10;99.90
12557;DHT22;6344;49.932;8.308;2022-09-13T00:13:06;13.10;99.90
12557;DHT22;6344;49.932;8.308;2022-09-13T00:15:33;12.90;99.90
12557;DHT22;6344;49.932;8.308;2022-09-13T00:18:00;12.80;99.90
12557;DHT22;6344;49.932;8.308;2022-09-13T00:20:28;12.70;99.90
12557;DHT22;6344;49.932;8.308;2022-09-13T00:22:55;12.70;99.90
12557;DHT22;6344;49.932;8.308;2022-09-13T00:25:23;12.70;99.90
12557;DHT22;6344;49.932;8.308;2022-09-13T00:27:49;12.80;99.90
12557;DHT22;6344;49.932;8.308;2022-09-13T00:30:16;12.70;99.90
12557;DHT22;6344;49.932;8.308;2022-09-13T00:32:43;12.70;99.90
12557;DHT22;6344;49.932;8.308;2022-09-13T00:35:10;12.70;99.90
12557;DHT22;6344;49.932;8.308;2022-09-13T00:37:36;12.60;99.90
12557;DHT22;6344;49.932;8.308;2022-09-13T00:40:05;12.70;99.90
12557;DHT22;6344;49.932;8.308;2022-09-13T00:42:33;12.50;99.90
12557;DHT22;6344;49.932;8.308;2022-09-13T00:45:01;12.40;99.90
12557;DHT22;6344;49.932;8.308;2022-09-13T00:47:33;12.30;99.90
12557;DHT22;6344;49.932;8.308;2022-09-13T00:50:05;12.20;99.90
12557;DHT22;6344;49.932;8.308;2022-09-13T00:52:34;12.30;99.90
12557;DHT22;6344;49.932;8.308;2022-09-13T00:55:07;12.40;99.90
12557;DHT22;6344;49.932;8.308;2022-09-13T00:57:38;12.40;99.90
12557;DHT22;6344;49.932;8.308;2022-09-13T01:00:09;12.30;99.90
12557;DHT22;6344;49.932;8.308;2022-09-13T01:02:39;12.10;99.90
12557;DHT22;6344;49.932;8.308;2022-09-13T01:05:07;12.30;99.90
12557;DHT22;6344;49.932;8.308;2022-09-13T01:07:35;12.20;99.90
12557;DHT22;6344;49.932;8.308;2022-09-13T01:10:04;12.30;99.90
12557;DHT22;6344;49.932;8.308;2022-09-13T01:12:36;12.40;99.90
12557;DHT22;6344;49.932;8.308;2022-09-13T01:15:07;12.40;99.90
12557;DHT22;6344;49.932;8.308;2022-09-13T01:17:34;12.50;99.90
12557;DHT22;6344;49.932;8.308;2022-09-13T01:20:05;12.50;99.90
12557;DHT22;6344;49.932;8.308;2022-09-13T01:23:06;12.40;99.90
12557;DHT22;6344;49.932;8.308;2022-09-13T01:31:56;12.10;99.90
12557;DHT22;6344;49.932;8.308;2022-09-13T01:34:32;12.10;99.90
12557;DHT22;6344;49.932;8.308;2022-09-13T01:37:23;12.10;99.90
12557;DHT22;6344;49.932;8.308;2022-09-13T01:40:03;12.10;99.90
12557;DHT22;6344;49.932;8.308;2022-09-13T01:42:41;12.00;99.90
12557;DHT22;6344;49.932;8.308;2022-09-13T01:45:19;11.90;99.90
12557;DHT22;6344;49.932;8.308;2022-09-13T01:47:52;11.80;99.90
12557;DHT22;6344;49.932;8.308;2022-09-13T01:50:29;12.00;99.90
12557;DHT22;6344;49.932;8.308;2022-09-13T01:53:04;12.10;99.90
12557;DHT22;6344;49.932;8.308;2022-09-13T01:55:37;12.20;99.90
12557;DHT22;6344;49.932;8.308;2022-09-13T01:58:14;12.10;99.90
12557;DHT22;6344;49.932;8.308;2022-09-13T02:00:46;12.20;99.90
12557;DHT22;6344;49.932;8.308;2022-09-13T02:03:17;12.30;99.90
12557;DHT22;6344;49.932;8.308;2022-09-13T02:05:49;12.20;99.90
12557;DHT22;6344;49.932;8.308;2022-09-13T02:08:20;12.10;99.90
12557;DHT22;6344;49.932;8.308;2022-09-13T02:10:52;12.20;99.90
12557;DHT22;6344;49.932;8.308;2022-09-13T02:13:21;12.40;99.90
12557;DHT22;6344;49.932;8.308;2022-09-13T02:15:53;12.40;99.90
12557;DHT22;6344;49.932;8.308;2022-09-13T02:18:25;12.40;99.90
12557;DHT22;6344;49.932;8.308;2022-09-13T02:20:58;12.40;99.90
12557;DHT22;6344;49.932;8.308;2022-09-13T02:23:31;12.30;99.90
12557;DHT22;6344;49.932;8.308;2022-09-13T02:26:02;12.30;99.90
12557;DHT22;6344;49.932;8.308;2022-09-13T02:28:34;12.20;99.90
12557;DHT22;6344;49.932;8.308;2022-09-13T02:31:04;12.20;99.90
12557;DHT22;6344;49.932;8.308;2022-09-13T02:33:36;12.30;99.90
12557;DHT22;6344;49.932;8.308;2022-09-13T02:36:05;12.40;99.90
12557;DHT22;6344;49.932;8.308;2022-09-13T02:38:37;12.40;99.90
12557;DHT22;6344;49.932;8.308;2022-09-13T02:41:13;12.40;99.90
12557;DHT22;6344;49.932;8.308;2022-09-13T02:43:45;12.40;99.90
12557;DHT22;6344;49.932;8.308;2022-09-13T02:46:24;12.50;99.90
12557;DHT22;6344;49.932;8.308;2022-09-13T02:48:59;12.50;99.90
12557;DHT22;6344;49.932;8.308;2022-09-13T02:51:32;12.50;99.90
12557;DHT22;6344;49.932;8.308;2022-09-13T02:54:17;12.50;99.90
12557;DHT22;6344;49.932;8.308;2022-09-13T02:56:50;12.60;99.90
12557;DHT22;6344;49.932;8.308;2022-09-13T02:59:21;12.60;99.90
12557;DHT22;6344;49.932;8.308;2022-09-13T03:01:51;12.60;99.90
12557;DHT22;6344;49.932;8.308;2022-09-13T03:04:20;12.70;99.90
12557;DHT22;6344;49.932;8.308;2022-09-13T03:06:48;12.70;99.90
12557;DHT22;6344;49.932;8.308;2022-09-13T03:09:15;12.80;99.90
12557;DHT22;6344;49.932;8.308;2022-09-13T03:11:55;13.00;99.90
12557;DHT22;6344;49.932;8.308;2022-09-13T03:14:33;13.00;99.90
12557;DHT22;6344;49.932;8.308;2022-09-13T03:17:14;13.00;99.90
12557;DHT22;6344;49.932;8.308;2022-09-13T03:19:55;12.90;99.90
12557;DHT22;6344;49.932;8.308;2022-09-13T03:22:57;12.90;99.90
12557;DHT22;6344;49.932;8.308;2022-09-13T03:25:32;13.00;99.90
12557;DHT22;6344;49.932;8.308;2022-09-13T03:28:12;13.00;99.90
12557;DHT22;6344;49.932;8.308;2022-09-13T03:30:48;13.00;99.90
12557;DHT22;6344;49.932;8.308;2022-09-13T03:33:22;13.00;99.90
12557;DHT22;6344;49.932;8.308;2022-09-13T03:35:56;13.20;99.90
12557;DHT22;6344;49.932;8.308;2022-09-13T03:38:27;13.20;99.90
12557;DHT22;6344;49.932;8.308;2022-09-13T03:40:59;13.40;99.90
12557;DHT22;6344;49.932;8.308;2022-09-13T03:43:30;13.40;99.90
12557;DHT22;6344;49.932;8.308;2022-09-13T03:46:04;13.50;99.90
12557;DHT22;6344;49.932;8.308;2022-09-13T03:48:31;13.40;99.90
12557;DHT22;6344;49.932;8.308;2022-09-13T03:51:02;13.40;99.90
12557;DHT22;6344;49.932;8.308;2022-09-13T03:53:30;13.10;99.90
12557;DHT22;6344;49.932;8.308;2022-09-13T03:55:59;12.90;99.90
12557;DHT22;6344;49.932;8.308;2022-09-13T03:58:26;12.90;99.90
12557;DHT22;6344;49.932;8.308;2022-09-13T04:00:53;12.80;99.90
12557;DHT22;6344;49.932;8.308;2022-09-13T04:03:20;12.70;99.90
12557;DHT22;6344;49.932;8.308;2022-09-13T04:05:46;12.70;99.90
12557;DHT22;6344;49.932;8.308;2022-09-13T04:08:14;12.60;99.90
12557;DHT22;6344;49.932;8.308;2022-09-13T04:10:41;12.60;99.90
12557;DHT22;6344;49.932;8.308;2022-09-13T04:13:07;12.60;99.90
12557;DHT22;6344;49.932;8.308;2022-09-13T04:15:34;12.60;99.90
12557;DHT22;6344;49.932;8.308;2022-09-13T04:18:01;12.60;99.90
12557;DHT22;6344;49.932;8.308;2022-09-13T04:20:27;12.60;99.90
12557;DHT22;6344;49.932;8.308;2022-09-13T04:22:55;12.50;99.90
12557;DHT22;6344;49.932;8.308;2022-09-13T04:25:24;12.60;99.90
12557;DHT22;6344;49.932;8.308;2022-09-13T04:27:53;12.60;99.90
12557;DHT22;6344;49.932;8.308;2022-09-13T04:30:20;12.60;99.90
12557;DHT22;6344;49.932;8.308;2022-09-13T04:32:47;12.60;99.90
12557;DHT22;6344;49.932;8.308;2022-09-13T04:35:14;12.60;99.90
12557;DHT22;6344;49.932;8.308;2022-09-13T04:37:42;12.70;99.90
12557;DHT22;6344;49.932;8.308;2022-09-13T04:40:09;12.60;99.90
12557;DHT22;6344;49.932;8.308;2022-09-13T04:42:37;12.60;99.90
12557;DHT22;6344;49.932;8.308;2022-09-13T04:45:05;12.60;99.90
12557;DHT22;6344;49.932;8.308;2022-09-13T04:47:32;12.60;99.90
12557;DHT22;6344;49.932;8.308;2022-09-13T04:49:59;12.60;99.90
12557;DHT22;6344;49.932;8.308;2022-09-13T04:52:25;12.60;99.90
12557;DHT22;6344;49.932;8.308;2022-09-13T04:54:52;12.70;99.90
12557;DHT22;6344;49.932;8.308;2022-09-13T04:57:19;12.70;99.90
12557;DHT22;6344;49.932;8.308;2022-09-13T04:59:47;12.70;99.90
12557;DHT22;6344;49.932;8.308;2022-09-13T05:02:14;12.70;99.90
12557;DHT22;6344;49.932;8.308;2022-09-13T05:04:40;12.70;99.90
12557;DHT22;6344;49.932;8.308;2022-09-13T05:07:07;12.70;99.90
12557;DHT22;6344;49.932;8.308;2022-09-13T05:09:33;12.80;99.90
12557;DHT22;6344;49.932;8.308;2022-09-13T05:12:00;12.90;99.90
12557;DHT22;6344;49.932;8.308;2022-09-13T05:14:27;13.20;99.90
12557;DHT22;6344;49.932;8.308;2022-09-13T05:16:55;13.30;99.90
12557;DHT22;6344;49.932;8.308;2022-09-13T05:19:22;13.40;99.90
12557;DHT22;6344;49.932;8.308;2022-09-13T05:21:48;13.50;99.90
12557;DHT22;6344;49.932;8.308;2022-09-13T05:24:15;13.60;99.90
12557;DHT22;6344;49.932;8.308;2022-09-13T05:26:42;13.70;99.90
12557;DHT22;6344;49.932;8.308;2022-09-13T05:29:08;13.70;99.90
12557;DHT22;6344;49.932;8.308;2022-09-13T05:31:37;13.60;99.90
12557;DHT22;6344;49.932;8.308;2022-09-13T05:34:07;13.60;99.90
12557;DHT22;6344;49.932;8.308;2022-09-13T05:36:36;13.70;99.90
12557;DHT22;6344;49.932;8.308;2022-09-13T05:39:03;13.70;99.90
12557;DHT22;6344;49.932;8.308;2022-09-13T05:41:30;13.90;99.90
12557;DHT22;6344;49.932;8.308;2022-09-13T05:43:57;13.80;99.90
12557;DHT22;6344;49.932;8.308;2022-09-13T05:46:24;14.00;99.90
12557;DHT22;6344;49.932;8.308;2022-09-13T05:48:51;14.20;99.90
12557;DHT22;6344;49.932;8.308;2022-09-13T05:51:21;14.30;99.90
12557;DHT22;6344;49.932;8.308;2022-09-13T05:53:48;14.40;99.90
12557;DHT22;6344;49.932;8.308;2022-09-13T05:56:17;14.40;99.90
12557;DHT22;6344;49.932;8.308;2022-09-13T05:58:46;14.30;99.90
12557;DHT22;6344;49.932;8.308;2022-09-13T06:01:14;14.30;99.90
12557;DHT22;6344;49.932;8.308;2022-09-13T06:03:41;14.40;99.90
12557;DHT22;6344;49.932;8.308;2022-09-13T06:06:10;14.50;99.90
12557;DHT22;6344;49.932;8.308;2022-09-13T06:08:38;14.40;99.90
12557;DHT22;6344;49.932;8.308;2022-09-13T06:11:05;14.40;99.90
12557;DHT22;6344;49.932;8.308;2022-09-13T06:13:33;14.50;99.90
12557;DHT22;6344;49.932;8.308;2022-09-13T06:16:02;14.50;99.90
12557;DHT22;6344;49.932;8.308;2022-09-13T06:18:29;14.70;99.90
12557;DHT22;6344;49.932;8.308;2022-09-13T06:21:00;14.90;99.90
12557;DHT22;6344;49.932;8.308;2022-09-13T06:23:27;15.20;99.90
12557;DHT22;6344;49.932;8.308;2022-09-13T06:26:03;15.30;99.90
12557;DHT22;6344;49.932;8.308;2022-09-13T06:28:31;15.40;99.90
12557;DHT22;6344;49.932;8.308;2022-09-13T06:31:02;15.40;99.90
12557;DHT22;6344;49.932;8.308;2022-09-13T06:33:28;15.50;99.90
12557;DHT22;6344;49.932;8.308;2022-09-13T06:35:59;15.80;99.90
12557;DHT22;6344;49.932;8.308;2022-09-13T06:38:26;16.10;99.90
12557;DHT22;6344;49.932;8.308;2022-09-13T06:40:59;16.20;99.90
12557;DHT22;6344;49.932;8.308;2022-09-13T06:43:27;15.90;99.90
12557;DHT22;6344;49.932;8.308;2022-09-13T06:45:58;15.90;99.90
12557;DHT22;6344;49.932;8.308;2022-09-13T06:48:25;16.00;99.90
12557;DHT22;6344;49.932;8.308;2022-09-13T06:50:52;16.10;99.90
12557;DHT22;6344;49.932;8.308;2022-09-13T06:53:23;16.00;99.90
12557;DHT22;6344;49.932;8.308;2022-09-13T06:55:59;16.10;99.90
12557;DHT22;6344;49.932;8.308;2022-09-13T06:58:28;16.30;99.90
12557;DHT22;6344;49.932;8.308;2022-09-13T07:01:04;16.50;99.90
12557;DHT22;6344;49.932;8.308;2022-09-13T07:03:34;16.40;99.90
12557;DHT22;6344;49.932;8.308;2022-09-13T07:06:06;16.30;99.90
12557;DHT22;6344;49.932;8.308;2022-09-13T07:08:33;16.30;99.90
12557;DHT22;6344;49.932;8.308;2022-09-13T07:11:00;16.10;99.90
12557;DHT22;6344;49.932;8.308;2022-09-13T07:13:28;16.20;99.90
12557;DHT22;6344;49.932;8.308;2022-09-13T07:15:55;16.30;99.90
12557;DHT22;6344;49.932;8.308;2022-09-13T07:18:21;16.60;99.90
12557;DHT22;6344;49.932;8.308;2022-09-13T07:20:48;16.80;99.90
12557;DHT22;6344;49.932;8.308;2022-09-13T07:23:15;16.90;99.90
12557;DHT22;6344;49.932;8.308;2022-09-13T07:25:41;17.00;99.90
12557;DHT22;6344;49.932;8.308;2022-09-13T07:28:08;16.90;99.90
12557;DHT22;6344;49.932;8.308;2022-09-13T07:30:36;16.90;99.90
12557;DHT22;6344;49.932;8.308;2022-09-13T07:33:03;16.70;99.90
12557;DHT22;6344;49.932;8.308;2022-09-13T07:35:30;16.70;99.90
12557;DHT22;6344;49.932;8.308;2022-09-13T07:37:56;16.40;99.90
12557;DHT22;6344;49.932;8.308;2022-09-13T07:40:23;16.30;99.90
12557;DHT22;6344;49.932;8.308;2022-09-13T07:42:50;16.30;99.90
12557;DHT22;6344;49.932;8.308;2022-09-13T07:45:17;16.40;99.90
12557;DHT22;6344;49.932;8.308;2022-09-13T07:47:45;16.50;99.90
12557;DHT22;6344;49.932;8.308;2022-09-13T07:50:13;16.80;99.90
12557;DHT22;6344;49.932;8.308;2022-09-13T07:52:40;16.70;99.90
12557;DHT22;6344;49.932;8.308;2022-09-13T07:55:07;16.90;99.90
12557;DHT22;6344;49.932;8.308;2022-09-13T07:57:34;17.00;99.90
12557;DHT22;6344;49.932;8.308;2022-09-13T08:00:01;17.30;99.90
12557;DHT22;6344;49.932;8.308;2022-09-13T08:02:29;17.40;99.90
12557;DHT22;6344;49.932;8.308;2022-09-13T08:04:58;17.70;99.90
12557;DHT22;6344;49.932;8.308;2022-09-13T08:07:25;17.90;99.90
12557;DHT22;6344;49.932;8.308;2022-09-13T08:09:51;18.10;99.90
12557;DHT22;6344;49.932;8.308;2022-09-13T08:12:20;18.50;99.90
12557;DHT22;6344;49.932;8.308;2022-09-13T08:14:47;18.80;99.90
12557;DHT22;6344;49.932;8.308;2022-09-13T08:17:14;18.90;99.90
12557;DHT22;6344;49.932;8.308;2022-09-13T08:19:41;19.10;99.90
12557;DHT22;6344;49.932;8.308;2022-09-13T08:22:08;19.00;99.90
12557;DHT22;6344;49.932;8.308;2022-09-13T08:24:35;19.30;99.90
12557;DHT22;6344;49.932;8.308;2022-09-13T08:27:02;19.40;99.90
12557;DHT22;6344;49.932;8.308;2022-09-13T08:29:28;19.50;99.90
12557;DHT22;6344;49.932;8.308;2022-09-13T08:31:56;19.70;99.90
12557;DHT22;6344;49.932;8.308;2022-09-13T08:34:22;19.80;1.00
12557;DHT22;6344;49.932;8.308;2022-09-13T08:36:50;20.10;99.90
12557;DHT22;6344;49.932;8.308;2022-09-13T08:39:18;19.60;1.00
12557;DHT22;6344;49.932;8.308;2022-09-13T08:41:54;19.20;1.00
12557;DHT22;6344;49.932;8.308;2022-09-13T08:44:27;19.10;99.90
12557;DHT22;6344;49.932;8.308;2022-09-13T08:47:01;18.70;1.00
12557;DHT22;6344;49.932;8.308;2022-09-13T08:49:32;18.20;1.00
12557;DHT22;6344;49.932;8.308;2022-09-13T08:52:04;18.00;99.90
12557;DHT22;6344;49.932;8.308;2022-09-13T08:54:38;17.80;99.90
12557;DHT22;6344;49.932;8.308;2022-09-13T08:57:11;17.60;1.00
12557;DHT22;6344;49.932;8.308;2022-09-13T08:59:49;17.30;99.90
12557;DHT22;6344;49.932;8.308;2022-09-13T09:02:42;17.40;99.90
12557;DHT22;6344;49.932;8.308;2022-09-13T09:05:15;17.60;99.90
12557;DHT22;6344;49.932;8.308;2022-09-13T09:07:45;17.60;99.90
12557;DHT22;6344;49.932;8.308;2022-09-13T09:10:16;17.60;99.90
12557;DHT22;6344;49.932;8.308;2022-09-13T09:12:46;17.60;99.90
12557;DHT22;6344;49.932;8.308;2022-09-13T09:15:18;17.60;99.90
12557;DHT22;6344;49.932;8.308;2022-09-13T09:17:50;17.80;99.90
12557;DHT22;6344;49.932;8.308;2022-09-13T09:22:53;18.10;99.90
12557;DHT22;6344;49.932;8.308;2022-09-13T09:25:23;18.40;1.00
12557;DHT22;6344;49.932;8.308;2022-09-13T09:27:50;18.50;1.00
12557;DHT22;6344;49.932;8.308;2022-09-13T09:30:18;18.80;99.90
12557;DHT22;6344;49.932;8.308;2022-09-13T09:33:03;19.00;99.90
12557;DHT22;6344;49.932;8.308;2022-09-13T09:35:43;19.30;1.00
12557;DHT22;6344;49.932;8.308;2022-09-13T09:38:25;19.30;99.90
12557;DHT22;6344;49.932;8.308;2022-09-13T09:40:59;19.30;1.00
12557;DHT22;6344;49.932;8.308;2022-09-13T09:43:32;19.40;1.00
12557;DHT22;6344;49.932;8.308;2022-09-13T09:46:02;19.50;1.00
12557;DHT22;6344;49.932;8.308;2022-09-13T09:48:36;19.40;1.00
12557;DHT22;6344;49.932;8.308;2022-09-13T09:51:04;19.10;1.00
12557;DHT22;6344;49.932;8.308;2022-09-13T09:53:39;18.80;1.00
12557;DHT22;6344;49.932;8.308;2022-09-13T09:56:21;19.00;1.00
12557;DHT22;6344;49.932;8.308;2022-09-13T09:58:49;19.00;99.90
12557;DHT22;6344;49.932;8.308;2022-09-13T10:01:21;19.00;99.90
12557;DHT22;6344;49.932;8.308;2022-09-13T10:03:54;19.20;1.00
12557;DHT22;6344;49.932;8.308;2022-09-13T10:06:24;19.50;1.00
12557;DHT22;6344;49.932;8.308;2022-09-13T10:08:57;19.90;1.00
12557;DHT22;6344;49.932;8.308;2022-09-13T10:11:37;19.80;1.00
12557;DHT22;6344;49.932;8.308;2022-09-13T10:14:04;19.60;99.90
12557;DHT22;6344;49.932;8.308;2022-09-13T10:16:31;19.40;9.60
12557;DHT22;6344;49.932;8.308;2022-09-13T10:19:21;19.30;99.90
12557;DHT22;6344;49.932;8.308;2022-09-13T10:22:11;19.30;99.90
12557;DHT22;6344;49.932;8.308;2022-09-13T10:24:40;19.00;99.90
12557;DHT22;6344;49.932;8.308;2022-09-13T10:27:19;19.20;99.90
12557;DHT22;6344;49.932;8.308;2022-09-13T10:29:48;19.20;99.90
12557;DHT22;6344;49.932;8.308;2022-09-13T10:32:16;19.60;99.90
12557;DHT22;6344;49.932;8.308;2022-09-13T10:34:45;19.60;1.00
12557;DHT22;6344;49.932;8.308;2022-09-13T10:37:15;19.60;1.00
12557;DHT22;6344;49.932;8.308;2022-09-13T10:39:55;19.50;99.90
12557;DHT22;6344;49.932;8.308;2022-09-13T10:42:26;19.50;99.90
12557;DHT22;6344;49.932;8.308;2022-09-13T10:44:57;19.40;99.90
12557;DHT22;6344;49.932;8.308;2022-09-13T10:47:28;19.30;99.90
12557;DHT22;6344;49.932;8.308;2022-09-13T10:50:10;19.60;94.40
12557;DHT22;6344;49.932;8.308;2022-09-13T10:52:42;20.20;99.90
12557;DHT22;6344;49.932;8.308;2022-09-13T10:55:30;20.50;38.30
12557;DHT22;6344;49.932;8.308;2022-09-13T10:58:15;21.00;1.00
12557;DHT22;6344;49.932;8.308;2022-09-13T11:03:49;20.90;1.00
12557;DHT22;6344;49.932;8.308;2022-09-13T11:06:26;20.70;1.00
12557;DHT22;6344;49.932;8.308;2022-09-13T11:08:59;20.60;1.00
12557;DHT22;6344;49.932;8.308;2022-09-13T11:11:34;20.50;1.00
12557;DHT22;6344;49.932;8.308;2022-09-13T11:14:15;20.30;1.00
12557;DHT22;6344;49.932;8.308;2022-09-13T11:16:52;20.00;84.60
12557;DHT22;6344;49.932;8.308;2022-09-13T11:19:48;20.30;99.90
12557;DHT22;6344;49.932;8.308;2022-09-13T11:22:43;20.80;99.90
12557;DHT22;6344;49.932;8.308;2022-09-13T11:25:29;20.80;99.90
12557;DHT22;6344;49.932;8.308;2022-09-13T11:28:03;21.00;99.90
12557;DHT22;6344;49.932;8.308;2022-09-13T11:30:37;21.40;1.00
12557;DHT22;6344;49.932;8.308;2022-09-13T11:33:21;21.50;1.00
12557;DHT22;6344;49.932;8.308;2022-09-13T11:35:59;21.20;1.00
12557;DHT22;6344;49.932;8.308;2022-09-13T11:38:34;21.00;99.90
12557;DHT22;6344;49.932;8.308;2022-09-13T11:41:12;20.50;1.00
12557;DHT22;6344;49.932;8.308;2022-09-13T11:43:53;20.30;99.90
12557;DHT22;6344;49.932;8.308;2022-09-13T11:46:27;20.00;99.90
12557;DHT22;6344;49.932;8.308;2022-09-13T11:49:15;20.00;99.90
12557;DHT22;6344;49.932;8.308;2022-09-13T11:51:52;20.00;99.90
12557;DHT22;6344;49.932;8.308;2022-09-13T11:54:31;20.00;99.90
12557;DHT22;6344;49.932;8.308;2022-09-13T11:57:06;20.20;21.90
12557;DHT22;6344;49.932;8.308;2022-09-13T11:59:39;20.20;99.90
12557;DHT22;6344;49.932;8.308;2022-09-13T12:02:15;20.20;99.90
12557;DHT22;6344;49.932;8.308;2022-09-13T12:04:48;20.50;67.10
12557;DHT22;6344;49.932;8.308;2022-09-13T12:07:26;20.40;43.50
12557;DHT22;6344;49.932;8.308;2022-09-13T12:09:58;20.30;1.00
12557;DHT22;6344;49.932;8.308;2022-09-13T12:12:29;20.20;99.90
12557;DHT22;6344;49.932;8.308;2022-09-13T12:15:02;20.20;1.00
12557;DHT22;6344;49.932;8.308;2022-09-13T12:17:35;20.20;1.00
12557;DHT22;6344;49.932;8.308;2022-09-13T12:20:04;20.20;99.90
12557;DHT22;6344;49.932;8.308;2022-09-13T12:22:33;19.90;99.90
12557;DHT22;6344;49.932;8.308;2022-09-13T12:25:06;19.80;99.90
12557;DHT22;6344;49.932;8.308;2022-09-13T12:27:39;19.70;27.20
12557;DHT22;6344;49.932;8.308;2022-09-13T12:30:14;19.60;1.00
12557;DHT22;6344;49.932;8.308;2022-09-13T12:32:42;19.70;99.90
12557;DHT22;6344;49.932;8.308;2022-09-13T12:35:18;19.80;99.90
12557;DHT22;6344;49.932;8.308;2022-09-13T12:40:47;20.10;1.00
12557;DHT22;6344;49.932;8.308;2022-09-13T12:43:35;20.40;99.90
12557;DHT22;6344;49.932;8.308;2022-09-13T12:49:12;20.90;99.90
12557;DHT22;6344;49.932;8.308;2022-09-13T12:51:59;21.00;99.90
12557;DHT22;6344;49.932;8.308;2022-09-13T12:57:37;21.50;1.00
12557;DHT22;6344;49.932;8.308;2022-09-13T13:00:19;21.60;99.90
12557;DHT22;6344;49.932;8.308;2022-09-13T13:02:57;21.90;99.90
12557;DHT22;6344;49.932;8.308;2022-09-13T13:05:28;22.30;1.00
12557;DHT22;6344;49.932;8.308;2022-09-13T13:07:58;22.10;1.00
12557;DHT22;6344;49.932;8.308;2022-09-13T13:10:29;22.10;1.00
12557;DHT22;6344;49.932;8.308;2022-09-13T13:13:09;22.40;1.00
12557;DHT22;6344;49.932;8.308;2022-09-13T13:15:58;22.40;1.00
12557;DHT22;6344;49.932;8.308;2022-09-13T13:18:29;22.30;1.00
12557;DHT22;6344;49.932;8.308;2022-09-13T13:21:20;22.00;28.30
12557;DHT22;6344;49.932;8.308;2022-09-13T13:23:47;21.90;1.00
12557;DHT22;6344;49.932;8.308;2022-09-13T13:26:46;21.80;28.90
12557;DHT22;6344;49.932;8.308;2022-09-13T13:29:17;21.90;9.50
12557;DHT22;6344;49.932;8.308;2022-09-13T13:32:04;21.90;1.00
12557;DHT22;6344;49.932;8.308;2022-09-13T13:34:42;21.70;92.00
12557;DHT22;6344;49.932;8.308;2022-09-13T13:37:31;21.50;99.90
12557;DHT22;6344;49.932;8.308;2022-09-13T13:40:25;21.30;1.00
12557;DHT22;6344;49.932;8.308;2022-09-13T13:43:28;21.10;1.00
12557;DHT22;6344;49.932;8.308;2022-09-13T13:45:57;21.30;1.00
12557;DHT22;6344;49.932;8.308;2022-09-13T13:48:36;21.30;1.00
12557;DHT22;6344;49.932;8.308;2022-09-13T13:51:24;21.50;99.90
12557;DHT22;6344;49.932;8.308;2022-09-13T13:53:55;21.70;99.90
12557;DHT22;6344;49.932;8.308;2022-09-13T13:56:34;21.90;99.90
12557;DHT22;6344;49.932;8.308;2022-09-13T13:59:14;21.90;1.00
12557;DHT22;6344;49.932;8.308;2022-09-13T14:01:44;22.40;1.00
12557;DHT22;6344;49.932;8.308;2022-09-13T14:04:43;22.50;1.00
12557;DHT22;6344;49.932;8.308;2022-09-13T14:07:23;22.80;1.00
12557;DHT22;6344;49.932;8.308;2022-09-13T14:09:58;22.60;1.00
12557;DHT22;6344;49.932;8.308;2022-09-13T14:12:33;22.20;1.00
12557;DHT22;6344;49.932;8.308;2022-09-13T14:15:16;22.10;28.10
12557;DHT22;6344;49.932;8.308;2022-09-13T14:18:01;22.40;1.00
12557;DHT22;6344;49.932;8.308;2022-09-13T14:20:35;22.40;1.00
12557;DHT22;6344;49.932;8.308;2022-09-13T14:23:16;22.20;99.90
12557;DHT22;6344;49.932;8.308;2022-09-13T14:25:43;21.90;75.60
12557;DHT22;6344;49.932;8.308;2022-09-13T14:28:13;21.80;99.90
12557;DHT22;6344;49.932;8.308;2022-09-13T14:30:44;21.80;99.90
12557;DHT22;6344;49.932;8.308;2022-09-13T14:33:20;21.60;99.90
12557;DHT22;6344;49.932;8.308;2022-09-13T14:35:59;21.80;99.90
12557;DHT22;6344;49.932;8.308;2022-09-13T14:38:30;21.80;99.90
12557;DHT22;6344;49.932;8.308;2022-09-13T14:41:02;22.00;55.40
12557;DHT22;6344;49.932;8.308;2022-09-13T14:43:36;21.80;99.90
12557;DHT22;6344;49.932;8.308;2022-09-13T14:46:05;21.70;99.90
12557;DHT22;6344;49.932;8.308;2022-09-13T14:48:37;21.60;99.90
12557;DHT22;6344;49.932;8.308;2022-09-13T14:51:13;21.90;99.90
12557;DHT22;6344;49.932;8.308;2022-09-13T14:53:42;21.90;99.90
12557;DHT22;6344;49.932;8.308;2022-09-13T14:56:15;21.90;99.90
12557;DHT22;6344;49.932;8.308;2022-09-13T14:58:45;21.90;99.90
12557;DHT22;6344;49.932;8.308;2022-09-13T15:01:15;21.80;99.90
12557;DHT22;6344;49.932;8.308;2022-09-13T15:03:43;21.70;99.90
12557;DHT22;6344;49.932;8.308;2022-09-13T15:06:21;21.80;27.50
12557;DHT22;6344;49.932;8.308;2022-09-13T15:08:50;21.80;24.80
12557;DHT22;6344;49.932;8.308;2022-09-13T15:11:32;21.70;99.90
12557;DHT22;6344;49.932;8.308;2022-09-13T15:14:22;21.20;1.00
12557;DHT22;6344;49.932;8.308;2022-09-13T15:16:50;21.10;99.90
12557;DHT22;6344;49.932;8.308;2022-09-13T15:19:27;20.90;1.00
12557;DHT22;6344;49.932;8.308;2022-09-13T15:22:03;20.90;1.00
12557;DHT22;6344;49.932;8.308;2022-09-13T15:24:32;20.80;98.70
12557;DHT22;6344;49.932;8.308;2022-09-13T15:27:04;20.80;99.90
12557;DHT22;6344;49.932;8.308;2022-09-13T15:29:32;20.80;99.90
12557;DHT22;6344;49.932;8.308;2022-09-13T15:32:02;20.70;57.10
12557;DHT22;6344;49.932;8.308;2022-09-13T15:34:31;20.80;1.00
12557;DHT22;6344;49.932;8.308;2022-09-13T15:37:08;20.60;99.90
12557;DHT22;6344;49.932;8.308;2022-09-13T15:39:46;20.50;99.90
12557;DHT22;6344;49.932;8.308;2022-09-13T15:42:13;20.30;99.90
12557;DHT22;6344;49.932;8.308;2022-09-13T15:44:40;20.40;99.90
12557;DHT22;6344;49.932;8.308;2022-09-13T15:47:09;20.40;1.00
12557;DHT22;6344;49.932;8.308;2022-09-13T15:49:38;20.30;99.90
12557;DHT22;6344;49.932;8.308;2022-09-13T15:52:06;20.30;96.80
12557;DHT22;6344;49.932;8.308;2022-09-13T15:54:34;20.60;99.90
12557;DHT22;6344;49.932;8.308;2022-09-13T15:57:05;20.60;99.90
12557;DHT22;6344;49.932;8.308;2022-09-13T15:59:32;20.70;99.90
12557;DHT22;6344;49.932;8.308;2022-09-13T16:01:59;20.50;29.30
12557;DHT22;6344;49.932;8.308;2022-09-13T16:04:26;20.30;98.50
12557;DHT22;6344;49.932;8.308;2022-09-13T16:06:54;20.30;1.00
12557;DHT22;6344;49.932;8.308;2022-09-13T16:09:23;20.50;1.00
12557;DHT22;6344;49.932;8.308;2022-09-13T16:11:52;20.40;1.00
12557;DHT22;6344;49.932;8.308;2022-09-13T16:14:20;20.30;99.90
12557;DHT22;6344;49.932;8.308;2022-09-13T16:16:46;20.20;99.90
12557;DHT22;6344;49.932;8.308;2022-09-13T16:19:16;20.10;99.90
12557;DHT22;6344;49.932;8.308;2022-09-13T16:21:43;20.20;1.00
12557;DHT22;6344;49.932;8.308;2022-09-13T16:24:10;20.20;99.90
12557;DHT22;6344;49.932;8.308;2022-09-13T16:26:37;20.30;1.00
12557;DHT22;6344;49.932;8.308;2022-09-13T16:29:04;20.20;99.90
12557;DHT22;6344;49.932;8.308;2022-09-13T16:31:32;20.20;99.90
12557;DHT22;6344;49.932;8.308;2022-09-13T16:33:59;20.10;99.90
12557;DHT22;6344;49.932;8.308;2022-09-13T16:36:26;20.30;99.90
12557;DHT22;6344;49.932;8.308;2022-09-13T16:38:53;20.50;99.90
12557;DHT22;6344;49.932;8.308;2022-09-13T16:41:20;20.50;99.90